Strona główna
METAR-TAF:

METAR-TAF

Lotnisko :

Port lotniczy Recife

Recife, Pernambuco, Brazylia

Szerokość geograficzna: 08-08S, Długość geograficzna: 034-55W, wysokość: 19 m

Aktualna obserwacja pogody

Raport powstał 1 godzina i 2 minut temu, godzina 00:00 UTC
Wiatr 6 kt od południowo-południowy wschód
Temperatura 27°C
Wilgotność 79%
Ciśnienie 1013 hPa
Widzialność 10 km lub więcej
Rozproszone chmury na wysokości 2300 ft

METAR: SBRF 260000Z 15006KT 9999 SCT023 27/23 Q1013

czas: 22:02 (01:02 UTC)

Prognoza

Raport powstał 3 godziny i 2 minut temu, godzina 22:00 UTC
Prognoza ważna od 26 godzina 00 UTC do 26 godzina 24 UTC
Wiatr 7 kt od południowy wschód
Widzialność 10 km lub więcej
Rozproszone chmury na wysokości 2000 ft

TAF: SBRF 252200Z 2600/2624 14007KT 9999 SCT020 TN25/2606Z TX30/2616Z RMK PED

Obserwacja i prognoza pogody dla ponad 4000 lotnisk (raport METAR i TAF).

Dostępne stacje oznaczono żółtymi i czerwonymi punktami na mapie.

Najedź kursorem aby zobaczyć nazwę stacji.

Kliknij aby zobaczyć obserwacje i prognozy pogody.

Aby zmienić mapę: kliknij na zielony przycisk z czarnym krzyżykiem, aby powiększyć; na zielony przycisk z myślnikiem, aby pomniejszyć; na zielone strzałki, aby przejść do map sąsiednich.


METAR-TAF: